Time;durP1;ratioP1;P1;durP2;ratioP2;P2;SDS_P1;SDS_P2;PMS_P1;PMS_P2;Temp;Humidity;BMP_temperature;BMP_pressure;BME280_temperature;BME280_humidity;BME280_pressure;Samples;Min_cycle;Max_cycle;Signal;HPM_P1;HPM_P2
2022/03/23 00:00:46;;;;;;;53.20;40.45;;;;;;;;;;4973662;28;20054;-71
2022/03/23 00:03:13;;;;;;;57.03;39.70;;;;;;;;;;4976141;28;20062;-71
2022/03/23 00:05:41;;;;;;;54.85;38.60;;;;;;;;;;4974878;28;20042;-70
2022/03/23 00:08:07;;;;;;;56.78;39.88;;;;;;;;;;4975817;28;20046;-71
2022/03/23 00:10:34;;;;;;;54.88;39.63;;;;;;;;;;4975084;28;20774;-71
2022/03/23 00:13:00;;;;;;;55.35;39.25;;;;;;;;;;4963828;28;20489;-69
2022/03/23 00:15:27;;;;;;;53.40;39.30;;;;;;;;;;4967214;28;20497;-70
2022/03/23 00:17:54;;;;;;;56.47;39.55;;;;;;;;;;4976882;28;20081;-70
2022/03/23 00:20:20;;;;;;;51.67;38.15;;;;;;;;;;4975478;28;20081;-70
2022/03/23 00:22:46;;;;;;;53.30;38.80;;;;;;;;;;4975972;28;20045;-70
2022/03/23 00:25:12;;;;;;;53.10;37.85;;;;;;;;;;4968875;28;20082;-70
2022/03/23 00:27:39;;;;;;;50.75;37.42;;;;;;;;;;4976459;28;20074;-70
2022/03/23 00:30:05;;;;;;;53.05;37.50;;;;;;;;;;4968608;28;20047;-70
2022/03/23 00:32:31;;;;;;;52.75;36.33;;;;;;;;;;4971093;28;20054;-70
2022/03/23 00:34:58;;;;;;;52.63;38.55;;;;;;;;;;4973532;28;20287;-70
2022/03/23 00:37:24;;;;;;;58.80;40.20;;;;;;;;;;4965452;28;20494;-70
2022/03/23 00:39:50;;;;;;;57.17;40.17;;;;;;;;;;4971193;28;20055;-70
2022/03/23 00:42:16;;;;;;;58.25;39.75;;;;;;;;;;4968515;28;20059;-70
2022/03/23 00:44:42;;;;;;;54.35;40.20;;;;;;;;;;4977602;28;20042;-70
2022/03/23 00:47:09;;;;;;;53.00;37.58;;;;;;;;;;4975781;28;20442;-70
2022/03/23 00:49:35;;;;;;;56.97;40.38;;;;;;;;;;4973138;28;20054;-70
2022/03/23 00:52:02;;;;;;;50.50;38.60;;;;;;;;;;4973288;28;20053;-70
2022/03/23 00:54:28;;;;;;;53.78;39.67;;;;;;;;;;4973071;28;20043;-70
2022/03/23 00:56:54;;;;;;;54.60;39.40;;;;;;;;;;4964269;28;20606;-70
2022/03/23 00:59:22;;;;;;;57.35;38.95;;;;;;;;;;4973587;28;20421;-70
2022/03/23 01:01:48;;;;;;;53.05;38.50;;;;;;;;;;4973968;28;20050;-70
2022/03/23 01:04:15;;;;;;;51.60;37.63;;;;;;;;;;4971467;28;20062;-70
2022/03/23 01:06:41;;;;;;;45.67;35.08;;;;;;;;;;4969450;28;20053;-70
2022/03/23 01:09:07;;;;;;;51.83;36.47;;;;;;;;;;4974048;28;20122;-70
2022/03/23 01:11:33;;;;;;;47.72;35.53;;;;;;;;;;4973061;28;20097;-70
2022/03/23 01:14:01;;;;;;;51.28;38.30;;;;;;;;;;4968865;28;20521;-70
2022/03/23 01:16:28;;;;;;;51.80;36.15;;;;;;;;;;4962290;28;20039;-70
2022/03/23 01:18:54;;;;;;;50.75;35.90;;;;;;;;;;4975882;28;20081;-70
2022/03/23 01:21:20;;;;;;;51.13;35.65;;;;;;;;;;4973049;28;20078;-70
2022/03/23 01:23:46;;;;;;;48.33;35.53;;;;;;;;;;4974357;28;20047;-71
2022/03/23 01:26:13;;;;;;;53.03;38.20;;;;;;;;;;4974861;28;20134;-70
2022/03/23 01:28:39;;;;;;;53.40;36.25;;;;;;;;;;4974416;28;20117;-71
2022/03/23 01:31:05;;;;;;;54.83;36.40;;;;;;;;;;4974703;28;20050;-70
2022/03/23 01:33:32;;;;;;;55.85;38.83;;;;;;;;;;4975590;28;20082;-70
2022/03/23 01:35:58;;;;;;;57.63;35.78;;;;;;;;;;4972625;28;20051;-70
2022/03/23 01:38:24;;;;;;;51.17;35.53;;;;;;;;;;4975083;28;20046;-70
2022/03/23 01:40:50;;;;;;;55.42;39.00;;;;;;;;;;4974000;28;20038;-70
2022/03/23 01:43:16;;;;;;;52.90;38.10;;;;;;;;;;4971829;28;20482;-70
2022/03/23 01:45:43;;;;;;;60.75;42.53;;;;;;;;;;4956314;29;20077;-70
2022/03/23 01:48:09;;;;;;;54.75;37.90;;;;;;;;;;4972558;28;20044;-70
2022/03/23 01:50:36;;;;;;;56.10;40.35;;;;;;;;;;4973353;28;20042;-70
2022/03/23 01:53:02;;;;;;;58.67;40.22;;;;;;;;;;4967433;28;20101;-70
2022/03/23 01:55:28;;;;;;;55.38;37.65;;;;;;;;;;4969438;28;20059;-70
2022/03/23 01:57:55;;;;;;;55.75;38.88;;;;;;;;;;4961084;28;20082;-69
2022/03/23 02:00:21;;;;;;;57.65;38.60;;;;;;;;;;4974425;28;20042;-69
2022/03/23 02:02:47;;;;;;;56.60;40.53;;;;;;;;;;4974568;28;20047;-70
2022/03/23 02:05:14;;;;;;;63.17;41.28;;;;;;;;;;4973165;28;20035;-70
2022/03/23 02:07:40;;;;;;;56.83;39.90;;;;;;;;;;4972878;28;20101;-70
2022/03/23 02:10:08;;;;;;;56.67;40.47;;;;;;;;;;4970324;28;20122;-70
2022/03/23 02:12:34;;;;;;;56.92;39.75;;;;;;;;;;4972481;28;20417;-70
2022/03/23 02:15:09;;;;;;;59.78;39.22;;;;;;;;;;4973941;28;20050;-69
2022/03/23 02:17:35;;;;;;;60.60;40.47;;;;;;;;;;4973688;28;20085;-69
2022/03/23 02:20:01;;;;;;;52.65;37.78;;;;;;;;;;4970167;28;20046;-70
2022/03/23 02:22:27;;;;;;;53.42;37.47;;;;;;;;;;4971649;28;20048;-69
2022/03/23 02:24:53;;;;;;;67.65;42.97;;;;;;;;;;4972798;28;20410;-70
2022/03/23 02:27:20;;;;;;;58.20;38.83;;;;;;;;;;4971971;28;20090;-70
2022/03/23 02:29:46;;;;;;;56.30;39.90;;;;;;;;;;4969119;28;20101;-70
2022/03/23 02:32:13;;;;;;;60.85;40.88;;;;;;;;;;4971110;28;20081;-70
2022/03/23 02:34:39;;;;;;;59.97;40.67;;;;;;;;;;4972597;28;20082;-70
2022/03/23 02:37:05;;;;;;;58.75;41.63;;;;;;;;;;4970248;28;20491;-70
2022/03/23 02:39:31;;;;;;;61.13;40.17;;;;;;;;;;4970189;28;20091;-70
2022/03/23 02:41:57;;;;;;;56.75;39.58;;;;;;;;;;4972154;28;20042;-70
2022/03/23 02:44:26;;;;;;;57.85;39.20;;;;;;;;;;4970724;28;20043;-70
2022/03/23 02:46:52;;;;;;;56.42;39.55;;;;;;;;;;4973863;28;20577;-69
2022/03/23 02:49:20;;;;;;;59.22;41.15;;;;;;;;;;4971629;28;20584;-70
2022/03/23 02:51:46;;;;;;;55.60;39.53;;;;;;;;;;4962347;28;20524;-69
2022/03/23 03:02:38;;;;;;;61.03;41.10;;;;;;;;;;4973410;28;20078;-69
2022/03/23 03:05:04;;;;;;;61.70;41.67;;;;;;;;;;4972344;28;20047;-70
2022/03/23 03:08:44;;;;;;;58.22;41.03;;;;;;;;;;4977458;28;20052;-70
2022/03/23 03:10:17;;;;;;;58.72;39.95;;;;;;;;;;4973329;28;20049;-70
2022/03/23 03:12:43;;;;;;;63.05;41.83;;;;;;;;;;4973008;28;20053;-71
2022/03/23 03:15:13;;;;;;;59.30;39.78;;;;;;;;;;4971261;28;20177;-70
2022/03/23 03:17:39;;;;;;;57.40;40.92;;;;;;;;;;4972756;28;20101;-70
2022/03/23 03:20:06;;;;;;;63.63;43.60;;;;;;;;;;4972520;28;20039;-70
2022/03/23 03:22:36;;;;;;;62.60;42.75;;;;;;;;;;4972985;28;20054;-69
2022/03/23 03:25:02;;;;;;;64.47;44.72;;;;;;;;;;4988695;28;20072;-69
2022/03/23 03:27:30;;;;;;;66.97;46.05;;;;;;;;;;4984961;28;20110;-69
2022/03/23 03:29:57;;;;;;;64.55;44.42;;;;;;;;;;4979677;28;20038;-69
2022/03/23 03:32:23;;;;;;;65.72;43.63;;;;;;;;;;4978374;28;20043;-70
2022/03/23 03:34:49;;;;;;;58.55;42.45;;;;;;;;;;4978871;28;20039;-69
2022/03/23 03:37:15;;;;;;;64.22;43.15;;;;;;;;;;4979464;28;20054;-69
2022/03/23 03:39:41;;;;;;;61.75;42.45;;;;;;;;;;4971426;28;20047;-70
2022/03/23 03:42:07;;;;;;;63.42;42.00;;;;;;;;;;4978159;28;20082;-70
2022/03/23 03:44:33;;;;;;;59.83;43.08;;;;;;;;;;4977823;28;20047;-70
2022/03/23 03:46:59;;;;;;;62.67;42.20;;;;;;;;;;4977394;28;20449;-69
2022/03/23 03:49:25;;;;;;;61.30;43.50;;;;;;;;;;4979110;28;20057;-70
2022/03/23 03:51:52;;;;;;;67.50;45.63;;;;;;;;;;4979506;28;20050;-70
2022/03/23 03:54:18;;;;;;;59.42;42.25;;;;;;;;;;4977124;28;20049;-70
2022/03/23 03:56:44;;;;;;;60.25;42.08;;;;;;;;;;4977607;28;20145;-70
2022/03/23 03:59:10;;;;;;;72.30;44.03;;;;;;;;;;4968866;28;20050;-70
2022/03/23 04:01:36;;;;;;;57.92;41.75;;;;;;;;;;4967299;28;20043;-70
2022/03/23 04:04:02;;;;;;;62.38;43.13;;;;;;;;;;4977435;28;20450;-70
2022/03/23 04:06:29;;;;;;;64.38;42.30;;;;;;;;;;4978448;28;20061;-70
2022/03/23 04:08:55;;;;;;;57.65;38.08;;;;;;;;;;4978152;28;20046;-70
2022/03/23 04:11:21;;;;;;;61.22;40.40;;;;;;;;;;4978053;28;20053;-70
2022/03/23 04:13:47;;;;;;;56.13;36.72;;;;;;;;;;4979141;28;20561;-70
2022/03/23 04:16:14;;;;;;;61.30;38.78;;;;;;;;;;4976603;28;20046;-70
2022/03/23 04:18:40;;;;;;;58.58;36.85;;;;;;;;;;4978370;28;20077;-70
2022/03/23 04:21:07;;;;;;;54.35;34.17;;;;;;;;;;4977647;28;20046;-70
2022/03/23 04:23:33;;;;;;;51.55;34.85;;;;;;;;;;4974618;28;20043;-70
2022/03/23 04:25:59;;;;;;;51.38;36.38;;;;;;;;;;4977377;28;20043;-70
2022/03/23 04:28:25;;;;;;;51.63;35.95;;;;;;;;;;4979056;28;20046;-70
2022/03/23 04:30:52;;;;;;;57.20;36.92;;;;;;;;;;4977290;28;20054;-70
2022/03/23 04:33:18;;;;;;;52.22;38.30;;;;;;;;;;4978596;28;20510;-70
2022/03/23 04:35:44;;;;;;;59.03;37.45;;;;;;;;;;4976942;28;20094;-70
2022/03/23 04:38:11;;;;;;;64.13;41.95;;;;;;;;;;4975603;28;20053;-70
2022/03/23 04:40:37;;;;;;;63.80;41.58;;;;;;;;;;4976503;28;20054;-70
2022/03/23 04:43:03;;;;;;;60.22;40.90;;;;;;;;;;4975800;28;20047;-70
2022/03/23 04:45:29;;;;;;;67.60;43.40;;;;;;;;;;4975954;28;20395;-70
2022/03/23 04:47:55;;;;;;;62.50;42.08;;;;;;;;;;4976079;28;20046;-70
2022/03/23 04:50:21;;;;;;;64.20;43.03;;;;;;;;;;4976559;28;20047;-70
2022/03/23 04:52:48;;;;;;;61.75;42.25;;;;;;;;;;4976261;28;20046;-70
2022/03/23 04:55:15;;;;;;;66.05;44.33;;;;;;;;;;4975417;28;20051;-70
2022/03/23 04:57:42;;;;;;;67.22;41.35;;;;;;;;;;4976070;28;20058;-70
2022/03/23 05:00:11;;;;;;;63.70;43.22;;;;;;;;;;4975921;28;20406;-70
2022/03/23 05:02:41;;;;;;;64.45;44.03;;;;;;;;;;4975945;28;20054;-70
2022/03/23 05:05:08;;;;;;;62.95;41.75;;;;;;;;;;4975802;28;20058;-70
2022/03/23 05:07:34;;;;;;;60.10;40.33;;;;;;;;;;4975523;28;20050;-71
2022/03/23 05:10:02;;;;;;;63.90;41.58;;;;;;;;;;4973787;28;20481;-70
2022/03/23 05:12:28;;;;;;;63.60;44.10;;;;;;;;;;4975580;28;20039;-70
2022/03/23 05:14:54;;;;;;;63.92;42.35;;;;;;;;;;4974003;28;20043;-70
2022/03/23 05:17:21;;;;;;;62.30;41.08;;;;;;;;;;4963166;28;20043;-70
2022/03/23 05:19:47;;;;;;;61.45;41.17;;;;;;;;;;4975526;28;20042;-70
2022/03/23 05:22:13;;;;;;;57.80;40.65;;;;;;;;;;4973889;28;20557;-70
2022/03/23 05:24:42;;;;;;;61.47;40.63;;;;;;;;;;4972711;28;20109;-69
2022/03/23 05:27:08;;;;;;;62.30;41.70;;;;;;;;;;4979697;28;20512;-69
2022/03/23 05:29:35;;;;;;;57.85;39.40;;;;;;;;;;4973846;28;20167;-70
2022/03/23 05:32:01;;;;;;;63.50;40.47;;;;;;;;;;4966900;28;20043;-70
2022/03/23 05:34:27;;;;;;;55.95;38.00;;;;;;;;;;4957686;28;20047;-70
2022/03/23 05:36:53;;;;;;;50.05;35.67;;;;;;;;;;4951272;28;20056;-70
2022/03/23 05:39:20;;;;;;;52.40;35.42;;;;;;;;;;4973861;28;20050;-69
2022/03/23 05:41:46;;;;;;;52.50;36.35;;;;;;;;;;4973104;28;20051;-70
2022/03/23 05:44:13;;;;;;;58.42;39.95;;;;;;;;;;4974132;28;20047;-69
2022/03/23 05:46:39;;;;;;;52.35;35.83;;;;;;;;;;4968238;28;20047;-69
2022/03/23 05:49:05;;;;;;;52.50;36.17;;;;;;;;;;4973121;28;20046;-69
2022/03/23 05:51:31;;;;;;;60.65;38.63;;;;;;;;;;4974478;28;20050;-70
2022/03/23 05:53:57;;;;;;;53.47;37.67;;;;;;;;;;4973143;28;20050;-70
2022/03/23 05:56:23;;;;;;;59.90;40.13;;;;;;;;;;4973569;28;20058;-70
2022/03/23 05:58:49;;;;;;;57.78;41.45;;;;;;;;;;4974979;28;20070;-69
2022/03/23 06:01:16;;;;;;;65.28;44.17;;;;;;;;;;4974013;28;20042;-70
2022/03/23 06:03:42;;;;;;;67.95;44.88;;;;;;;;;;4964874;28;20043;-70
2022/03/23 06:06:09;;;;;;;61.42;43.53;;;;;;;;;;4972644;28;20050;-70
2022/03/23 06:08:35;;;;;;;62.10;43.20;;;;;;;;;;4962937;28;20509;-70
2022/03/23 06:11:02;;;;;;;61.65;41.92;;;;;;;;;;4972814;28;20047;-70
2022/03/23 06:13:28;;;;;;;60.72;42.28;;;;;;;;;;4966971;28;20043;-70
2022/03/23 06:15:54;;;;;;;60.47;42.95;;;;;;;;;;4961602;28;20043;-70
2022/03/23 06:18:20;;;;;;;56.95;38.83;;;;;;;;;;4972163;28;20057;-71
2022/03/23 06:20:46;;;;;;;56.33;40.60;;;;;;;;;;4972280;28;20422;-70
2022/03/23 06:23:13;;;;;;;50.45;39.13;;;;;;;;;;4973197;28;20050;-70
2022/03/23 06:25:39;;;;;;;54.22;39.15;;;;;;;;;;4972217;28;20497;-71
2022/03/23 06:28:05;;;;;;;53.60;38.90;;;;;;;;;;4968749;28;21358;-71
2022/03/23 06:30:31;;;;;;;50.33;37.75;;;;;;;;;;4964510;28;20051;-71
2022/03/23 06:32:57;;;;;;;54.33;39.75;;;;;;;;;;4968401;28;20113;-70
2022/03/23 06:35:24;;;;;;;54.33;38.85;;;;;;;;;;4970380;28;20038;-71
2022/03/23 06:37:50;;;;;;;50.75;37.33;;;;;;;;;;4969770;28;20057;-71
2022/03/23 06:40:16;;;;;;;44.30;33.08;;;;;;;;;;4967101;28;20045;-71
2022/03/23 06:42:42;;;;;;;48.85;36.05;;;;;;;;;;4970971;28;20039;-71
2022/03/23 06:45:08;;;;;;;46.65;35.42;;;;;;;;;;4971208;28;20486;-69
2022/03/23 06:47:34;;;;;;;49.20;38.08;;;;;;;;;;4972287;28;20589;-69
2022/03/23 06:50:00;;;;;;;47.47;36.72;;;;;;;;;;4972232;28;20073;-69
2022/03/23 06:52:26;;;;;;;49.70;36.03;;;;;;;;;;4973509;28;20553;-69
2022/03/23 06:54:52;;;;;;;42.53;36.00;;;;;;;;;;4972872;28;20046;-70
2022/03/23 06:57:18;;;;;;;46.90;35.47;;;;;;;;;;4973230;28;20073;-70
2022/03/23 06:59:44;;;;;;;44.05;34.17;;;;;;;;;;4970681;28;20046;-70
2022/03/23 07:02:10;;;;;;;42.83;34.97;;;;;;;;;;4964844;28;20068;-70
2022/03/23 07:04:36;;;;;;;43.47;34.15;;;;;;;;;;4968130;28;20198;-70
2022/03/23 07:07:03;;;;;;;43.63;33.95;;;;;;;;;;4971178;28;20086;-70
2022/03/23 07:09:32;;;;;;;43.10;35.10;;;;;;;;;;4972289;28;20046;-70
2022/03/23 07:11:59;;;;;;;38.70;32.72;;;;;;;;;;4966423;28;20512;-70
2022/03/23 07:14:25;;;;;;;42.38;35.20;;;;;;;;;;4972872;28;20061;-70
2022/03/23 07:16:51;;;;;;;48.05;35.00;;;;;;;;;;4973450;28;20038;-70
2022/03/23 07:19:17;;;;;;;44.28;33.10;;;;;;;;;;4973455;28;20399;-71
2022/03/23 07:21:43;;;;;;;44.60;33.40;;;;;;;;;;4973902;28;20144;-70
2022/03/23 07:24:11;;;;;;;42.70;31.80;;;;;;;;;;4973289;28;20051;-70
2022/03/23 07:26:37;;;;;;;41.17;31.95;;;;;;;;;;4973422;28;20058;-70
2022/03/23 07:29:03;;;;;;;41.25;32.33;;;;;;;;;;4973231;28;20086;-70
2022/03/23 07:31:29;;;;;;;41.63;33.00;;;;;;;;;;4973692;28;20043;-70
2022/03/23 07:33:57;;;;;;;40.15;31.05;;;;;;;;;;4973632;28;20379;-70
2022/03/23 07:36:24;;;;;;;38.28;32.17;;;;;;;;;;4968222;28;20065;-70
2022/03/23 07:38:50;;;;;;;37.60;29.55;;;;;;;;;;4975920;28;20129;-70
2022/03/23 07:41:16;;;;;;;41.67;32.00;;;;;;;;;;4973268;28;20383;-70
2022/03/23 07:43:42;;;;;;;36.72;30.73;;;;;;;;;;4973699;28;20213;-69
2022/03/23 07:46:08;;;;;;;42.38;32.25;;;;;;;;;;4972393;28;20050;-69
2022/03/23 07:48:35;;;;;;;38.08;30.95;;;;;;;;;;4973255;28;20070;-69
2022/03/23 07:51:01;;;;;;;35.78;30.75;;;;;;;;;;4972769;28;20081;-70
2022/03/23 07:53:27;;;;;;;39.42;31.08;;;;;;;;;;4973402;28;20042;-70
2022/03/23 07:55:54;;;;;;;39.00;31.38;;;;;;;;;;4972990;28;20503;-70
2022/03/23 07:58:21;;;;;;;40.22;31.23;;;;;;;;;;4973317;28;20047;-70
2022/03/23 08:00:47;;;;;;;36.03;29.10;;;;;;;;;;4972572;28;20053;-70
2022/03/23 08:03:14;;;;;;;33.85;30.08;;;;;;;;;;4973377;28;20525;-70
2022/03/23 08:05:42;;;;;;;37.50;30.55;;;;;;;;;;4973079;28;20537;-70
2022/03/23 08:08:09;;;;;;;39.30;30.33;;;;;;;;;;4972999;28;20102;-70
2022/03/23 08:10:36;;;;;;;33.85;28.55;;;;;;;;;;4973123;28;20089;-70
2022/03/23 08:13:02;;;;;;;37.13;30.05;;;;;;;;;;4974747;28;20050;-70
2022/03/23 08:15:29;;;;;;;35.35;29.85;;;;;;;;;;4976608;28;20494;-70
2022/03/23 08:17:56;;;;;;;32.38;28.67;;;;;;;;;;4975313;28;20537;-71
2022/03/23 08:20:37;;;;;;;39.67;27.90;;;;;;;;;;4975642;28;20053;-71
2022/03/23 08:23:07;;;;;;;32.03;27.88;;;;;;;;;;4976822;28;20047;-71
2022/03/23 08:25:37;;;;;;;37.08;27.73;;;;;;;;;;4976314;28;20457;-71
2022/03/23 08:28:03;;;;;;;31.38;28.08;;;;;;;;;;4972259;28;20137;-71
2022/03/23 08:30:29;;;;;;;32.35;27.17;;;;;;;;;;4975009;28;20118;-70
2022/03/23 08:32:55;;;;;;;30.77;26.90;;;;;;;;;;4975579;28;20113;-70
2022/03/23 08:35:26;;;;;;;30.63;26.02;;;;;;;;;;4984328;28;20438;-70
2022/03/23 08:37:52;;;;;;;30.30;26.65;;;;;;;;;;4976305;28;20486;-70
2022/03/23 08:40:19;;;;;;;28.60;23.98;;;;;;;;;;4976225;28;20054;-70
2022/03/23 08:42:45;;;;;;;29.08;24.05;;;;;;;;;;4976566;28;20138;-70
2022/03/23 08:45:12;;;;;;;31.02;24.50;;;;;;;;;;4974895;28;20515;-70
2022/03/23 08:47:39;;;;;;;32.65;26.25;;;;;;;;;;4960000;28;20043;-71
2022/03/23 08:50:07;;;;;;;32.90;26.67;;;;;;;;;;4961002;28;20045;-70
2022/03/23 08:52:34;;;;;;;34.30;26.52;;;;;;;;;;4974861;28;20109;-72
2022/03/23 08:55:00;;;;;;;32.05;25.80;;;;;;;;;;4975676;28;20046;-71
2022/03/23 08:57:27;;;;;;;31.85;25.45;;;;;;;;;;4975715;28;20053;-70
2022/03/23 08:59:53;;;;;;;30.98;25.00;;;;;;;;;;4974290;28;20043;-72
2022/03/23 09:02:19;;;;;;;30.92;23.33;;;;;;;;;;4977226;28;20450;-72
2022/03/23 09:04:45;;;;;;;26.50;22.88;;;;;;;;;;4976622;28;20486;-72
2022/03/23 09:07:11;;;;;;;32.25;25.02;;;;;;;;;;4977537;28;20051;-73
2022/03/23 09:09:37;;;;;;;45.97;27.38;;;;;;;;;;4976036;28;20047;-72
2022/03/23 09:12:03;;;;;;;59.67;29.70;;;;;;;;;;4976369;28;20042;-71
2022/03/23 09:14:29;;;;;;;62.05;30.20;;;;;;;;;;4976057;28;20047;-71
2022/03/23 09:16:55;;;;;;;84.60;32.45;;;;;;;;;;4956980;29;20056;-70
2022/03/23 09:19:21;;;;;;;27.58;21.23;;;;;;;;;;4963526;28;20055;-70
2022/03/23 09:21:48;;;;;;;35.78;23.88;;;;;;;;;;4974733;28;20050;-70
2022/03/23 09:24:15;;;;;;;29.67;22.50;;;;;;;;;;4975147;28;20081;-71
2022/03/23 09:26:41;;;;;;;30.52;21.85;;;;;;;;;;4976608;28;20042;-71
2022/03/23 09:29:08;;;;;;;26.50;20.45;;;;;;;;;;4975884;28;20042;-72
2022/03/23 09:31:34;;;;;;;24.73;20.58;;;;;;;;;;4975624;28;20043;-72
2022/03/23 09:34:02;;;;;;;32.10;22.35;;;;;;;;;;4974641;28;20094;-73
2022/03/23 09:39:13;;;;;;;37.53;21.98;;;;;;;;;;4974918;28;20042;-72
2022/03/23 09:41:40;;;;;;;23.67;19.15;;;;;;;;;;4975163;28;20046;-73
2022/03/23 09:44:07;;;;;;;24.42;20.25;;;;;;;;;;4975598;28;20043;-73
2022/03/23 09:46:33;;;;;;;23.33;18.67;;;;;;;;;;4976684;28;20050;-72
2022/03/23 09:49:00;;;;;;;21.95;18.40;;;;;;;;;;4975859;28;20177;-73
2022/03/23 09:51:26;;;;;;;22.92;18.85;;;;;;;;;;4975892;28;20133;-70
2022/03/23 09:53:53;;;;;;;20.90;17.17;;;;;;;;;;4975777;28;20054;-70
2022/03/23 09:56:19;;;;;;;20.55;18.13;;;;;;;;;;4979047;28;20074;-71
2022/03/23 09:58:45;;;;;;;20.13;17.50;;;;;;;;;;4972004;28;20141;-69
2022/03/23 10:01:30;;;;;;;20.90;18.17;;;;;;;;;;4976205;28;20399;-70
2022/03/23 10:03:56;;;;;;;22.23;17.55;;;;;;;;;;4973903;28;20051;-69
2022/03/23 10:06:48;;;;;;;22.40;18.05;;;;;;;;;;4975408;28;20042;-70
2022/03/23 10:09:26;;;;;;;24.45;18.73;;;;;;;;;;4956218;29;20490;-69
2022/03/23 10:12:11;;;;;;;23.38;17.90;;;;;;;;;;4967283;28;20101;-70
2022/03/23 10:14:56;;;;;;;20.58;16.63;;;;;;;;;;4975193;28;20382;-70
2022/03/23 10:17:22;;;;;;;22.10;15.68;;;;;;;;;;4974989;28;20405;-70
2022/03/23 10:19:48;;;;;;;20.00;15.20;;;;;;;;;;4976391;28;20046;-70
2022/03/23 10:22:15;;;;;;;27.13;15.73;;;;;;;;;;4975934;28;20465;-71
2022/03/23 10:24:41;;;;;;;19.52;15.73;;;;;;;;;;4976472;28;20051;-71
2022/03/23 10:27:08;;;;;;;21.38;15.07;;;;;;;;;;4976731;28;20089;-72
2022/03/23 10:29:39;;;;;;;20.05;15.70;;;;;;;;;;4974169;28;20086;-71
2022/03/23 10:32:10;;;;;;;20.02;15.43;;;;;;;;;;4976174;28;20042;-71
2022/03/23 10:34:44;;;;;;;20.95;15.63;;;;;;;;;;4974015;28;20395;-71
2022/03/23 10:37:11;;;;;;;20.38;15.25;;;;;;;;;;4983063;28;20465;-71
2022/03/23 10:39:37;;;;;;;20.95;15.25;;;;;;;;;;4975123;28;20047;-71
2022/03/23 10:42:15;;;;;;;19.23;16.17;;;;;;;;;;4975992;28;20058;-71
2022/03/23 10:44:41;;;;;;;22.85;16.65;;;;;;;;;;4975451;28;20110;-71
2022/03/23 10:47:07;;;;;;;17.90;15.15;;;;;;;;;;4973817;28;20130;-71
2022/03/23 10:49:37;;;;;;;17.95;15.30;;;;;;;;;;4975303;28;20082;-71
2022/03/23 10:52:13;;;;;;;20.40;14.80;;;;;;;;;;4974895;28;20047;-71
2022/03/23 10:54:39;;;;;;;21.38;15.35;;;;;;;;;;4972789;28;20051;-72
2022/03/23 10:57:05;;;;;;;22.30;15.68;;;;;;;;;;4975842;28;20090;-71
2022/03/23 10:59:32;;;;;;;18.67;15.13;;;;;;;;;;4976334;28;20054;-71
2022/03/23 11:02:03;;;;;;;18.55;15.10;;;;;;;;;;4976781;28;20051;-71
2022/03/23 11:04:30;;;;;;;17.90;15.97;;;;;;;;;;4968846;28;20118;-70
2022/03/23 11:07:02;;;;;;;22.67;14.80;;;;;;;;;;4975270;28;20053;-71
2022/03/23 11:18:05;;;;;;;24.45;14.10;;;;;;;;;;4981769;28;20046;-72
2022/03/23 11:20:41;;;;;;;20.15;13.95;;;;;;;;;;4967458;28;20497;-72
2022/03/23 11:23:19;;;;;;;20.00;13.60;;;;;;;;;;4974202;28;20038;-72
2022/03/23 11:25:49;;;;;;;17.60;13.23;;;;;;;;;;4974657;28;20710;-71
2022/03/23 11:28:15;;;;;;;21.02;13.18;;;;;;;;;;4972816;28;20046;-71
2022/03/23 11:30:45;;;;;;;30.33;18.65;;;;;;;;;;4974008;28;20038;-72
2022/03/23 11:33:12;;;;;;;23.58;13.43;;;;;;;;;;4973781;28;20101;-71
2022/03/23 11:35:49;;;;;;;20.40;13.93;;;;;;;;;;4974615;28;20458;-72
2022/03/23 11:38:28;;;;;;;22.33;13.18;;;;;;;;;;4973292;28;20537;-71
2022/03/23 11:40:55;;;;;;;22.42;14.00;;;;;;;;;;4975187;28;20051;-72
2022/03/23 11:43:23;;;;;;;19.58;13.70;;;;;;;;;;4978682;28;20078;-72
2022/03/23 11:45:50;;;;;;;23.80;13.88;;;;;;;;;;4981839;28;20059;-72
2022/03/23 11:48:35;;;;;;;25.27;14.13;;;;;;;;;;4979267;28;20055;-71
2022/03/23 11:51:13;;;;;;;21.33;13.43;;;;;;;;;;4971627;28;20051;-71
2022/03/23 11:54:02;;;;;;;21.95;12.80;;;;;;;;;;4970823;28;20282;-72
2022/03/23 11:56:37;;;;;;;21.92;13.40;;;;;;;;;;4986559;28;20581;-71
2022/03/23 11:59:22;;;;;;;21.48;13.30;;;;;;;;;;4983123;28;20078;-71
2022/03/23 12:01:50;;;;;;;17.25;13.55;;;;;;;;;;4986131;28;20043;-70
2022/03/23 12:04:26;;;;;;;19.45;12.75;;;;;;;;;;4985832;28;20118;-71
2022/03/23 12:07:06;;;;;;;20.63;12.48;;;;;;;;;;4986005;28;20102;-72
2022/03/23 12:09:48;;;;;;;19.57;12.70;;;;;;;;;;4988352;28;20129;-72
2022/03/23 12:12:14;;;;;;;19.73;12.32;;;;;;;;;;4988367;28;20101;-72
2022/03/23 12:14:42;;;;;;;19.85;12.70;;;;;;;;;;4984813;28;20051;-71
2022/03/23 12:17:12;;;;;;;21.20;10.85;;;;;;;;;;4974782;28;20057;-72
2022/03/23 12:20:03;;;;;;;21.92;10.05;;;;;;;;;;4976817;28;20098;-72
2022/03/23 12:22:49;;;;;;;16.95;9.38;;;;;;;;;;4976873;28;20065;-72
2022/03/23 12:25:20;;;;;;;22.55;11.73;;;;;;;;;;4941186;28;20051;-73
2022/03/23 12:27:46;;;;;;;19.90;13.07;;;;;;;;;;4977826;28;20051;-72
2022/03/23 12:30:16;;;;;;;19.30;12.93;;;;;;;;;;4977888;28;20498;-73
2022/03/23 12:32:42;;;;;;;20.10;10.93;;;;;;;;;;4984250;28;20043;-71
2022/03/23 12:35:09;;;;;;;17.88;9.38;;;;;;;;;;4980166;28;20042;-71
2022/03/23 12:37:37;;;;;;;19.33;8.73;;;;;;;;;;4982278;28;20043;-71
2022/03/23 12:40:07;;;;;;;18.63;9.15;;;;;;;;;;4984581;28;20050;-72
2022/03/23 12:42:34;;;;;;;20.48;10.35;;;;;;;;;;4984943;28;20046;-72
2022/03/23 12:45:01;;;;;;;20.58;9.70;;;;;;;;;;4983689;28;20055;-72
2022/03/23 12:47:29;;;;;;;22.48;11.68;;;;;;;;;;4982871;28;20061;-73
2022/03/23 12:58:23;;;;;;;20.55;11.80;;;;;;;;;;4985169;28;20106;-73
2022/03/23 13:00:50;;;;;;;20.88;12.20;;;;;;;;;;4969946;29;20048;-72
2022/03/23 13:03:19;;;;;;;21.55;11.15;;;;;;;;;;4986713;28;20057;-72
2022/03/23 13:05:58;;;;;;;23.90;9.82;;;;;;;;;;4992790;28;20103;-72
2022/03/23 13:08:30;;;;;;;18.30;11.02;;;;;;;;;;4991210;28;20112;-71
2022/03/23 13:11:03;;;;;;;25.00;11.50;;;;;;;;;;4992991;28;20117;-72
2022/03/23 13:13:32;;;;;;;20.35;11.32;;;;;;;;;;4992287;28;20098;-71
2022/03/23 13:15:58;;;;;;;27.63;10.73;;;;;;;;;;4990378;28;20051;-71
2022/03/23 13:18:28;;;;;;;20.60;9.30;;;;;;;;;;4989186;28;20043;-76
2022/03/23 13:20:57;;;;;;;27.17;9.68;;;;;;;;;;4974603;28;20050;-72
2022/03/23 13:23:23;;;;;;;20.75;9.27;;;;;;;;;;4989162;28;20058;-71
2022/03/23 13:26:07;;;;;;;26.00;9.63;;;;;;;;;;4988692;28;20043;-74
2022/03/23 13:28:40;;;;;;;19.50;9.75;;;;;;;;;;4989479;28;20046;-72
2022/03/23 13:31:12;;;;;;;18.05;9.52;;;;;;;;;;4992740;28;20055;-72
2022/03/23 13:33:39;;;;;;;17.80;8.50;;;;;;;;;;4991195;28;20047;-71
2022/03/23 13:36:06;;;;;;;17.35;8.15;;;;;;;;;;4980997;28;20099;-71
2022/03/23 13:38:41;;;;;;;19.92;8.82;;;;;;;;;;4986404;28;20057;-72
2022/03/23 13:43:52;;;;;;;21.92;9.77;;;;;;;;;;4990715;28;20051;-72
2022/03/23 13:46:19;;;;;;;25.20;9.70;;;;;;;;;;4994000;28;20051;-72
2022/03/23 13:48:45;;;;;;;17.48;8.50;;;;;;;;;;4989940;28;20038;-72
2022/03/23 13:51:11;;;;;;;16.98;7.97;;;;;;;;;;4988167;28;20047;-73
2022/03/23 13:53:38;;;;;;;20.85;7.60;;;;;;;;;;4987313;28;20038;-72
2022/03/23 13:56:05;;;;;;;17.83;6.80;;;;;;;;;;4985445;28;20055;-72
2022/03/23 13:58:31;;;;;;;17.77;6.53;;;;;;;;;;4989872;28;20051;-73
2022/03/23 14:00:57;;;;;;;22.63;6.13;;;;;;;;;;4989939;28;20101;-72
2022/03/23 14:03:30;;;;;;;19.27;6.03;;;;;;;;;;4989229;28;20078;-72
2022/03/23 14:06:08;;;;;;;19.38;6.93;;;;;;;;;;4990045;28;20050;-73
2022/03/23 14:08:36;;;;;;;22.80;6.35;;;;;;;;;;4982732;28;20083;-73
2022/03/23 14:11:02;;;;;;;19.63;6.45;;;;;;;;;;4982725;28;20043;-72
2022/03/23 14:13:29;;;;;;;22.75;7.63;;;;;;;;;;4988412;28;20062;-72
2022/03/23 14:15:57;;;;;;;22.10;6.22;;;;;;;;;;4990434;28;20055;-72
2022/03/23 14:18:24;;;;;;;21.33;5.70;;;;;;;;;;4956203;29;20039;-72
2022/03/23 14:20:54;;;;;;;17.98;6.25;;;;;;;;;;4967982;28;20050;-71
2022/03/23 14:23:22;;;;;;;18.83;5.82;;;;;;;;;;4980160;28;20051;-72
2022/03/23 14:25:50;;;;;;;20.42;5.82;;;;;;;;;;4985742;28;20528;-71
2022/03/23 14:28:19;;;;;;;18.58;5.88;;;;;;;;;;4986506;28;20058;-71
2022/03/23 14:30:47;;;;;;;26.88;6.40;;;;;;;;;;4986650;28;20047;-71
2022/03/23 14:33:17;;;;;;;18.33;6.95;;;;;;;;;;4985703;28;20109;-72
2022/03/23 14:35:44;;;;;;;20.70;5.75;;;;;;;;;;4984503;28;20498;-71
2022/03/23 14:38:14;;;;;;;23.75;5.75;;;;;;;;;;4972226;28;20050;-71
2022/03/23 14:40:53;;;;;;;20.63;6.60;;;;;;;;;;4980455;28;20047;-72
2022/03/23 14:43:25;;;;;;;19.40;7.90;;;;;;;;;;4983956;28;20043;-72
2022/03/23 14:45:51;;;;;;;18.35;7.88;;;;;;;;;;4983242;28;20047;-72
2022/03/23 14:48:23;;;;;;;21.95;8.70;;;;;;;;;;4983233;28;20078;-72
2022/03/23 14:51:02;;;;;;;24.52;7.22;;;;;;;;;;4985417;28;20043;-71
2022/03/23 14:53:29;;;;;;;20.52;6.20;;;;;;;;;;4985303;28;20035;-71